createdAt,value
2016-07-06T00:00:23.518Z,13.46
2016-07-06T00:00:53.513Z,13.41
2016-07-06T00:01:23.550Z,13.44
2016-07-06T00:01:52.931Z,13.39
2016-07-06T00:02:23.570Z,13.42
2016-07-06T00:02:52.962Z,13.46
2016-07-06T00:03:22.968Z,13.41
2016-07-06T00:03:53.605Z,13.41
2016-07-06T00:04:23.009Z,13.44
2016-07-06T00:04:53.632Z,13.46
2016-07-06T00:05:23.654Z,13.44
2016-07-06T00:05:53.673Z,13.39
2016-07-06T00:06:23.070Z,13.38
2016-07-06T00:06:53.698Z,13.44
2016-07-06T00:07:23.708Z,13.33
2016-07-06T00:07:53.110Z,13.37
2016-07-06T00:08:23.121Z,13.35
2016-07-06T00:08:53.751Z,13.38
2016-07-06T00:09:23.157Z,13.38
2016-07-06T00:09:53.786Z,13.38
2016-07-06T00:10:23.177Z,13.33
2016-07-06T00:10:53.805Z,13.35
2016-07-06T00:11:23.211Z,13.28
2016-07-06T00:11:53.818Z,13.35
2016-07-06T00:12:23.844Z,13.35
2016-07-06T00:12:53.861Z,13.27
2016-07-06T00:13:23.881Z,13.31
2016-07-06T00:13:53.891Z,13.33
2016-07-06T00:14:23.911Z,13.33
2016-07-06T00:14:53.920Z,13.22
2016-07-06T00:15:23.320Z,13.28
2016-07-06T00:15:53.339Z,13.27
2016-07-06T00:16:23.965Z,13.27
2016-07-06T00:16:53.991Z,13.23
2016-07-06T00:17:23.996Z,13.23
2016-07-06T00:17:53.393Z,13.2
2016-07-06T00:18:24.020Z,13.09
2016-07-06T00:18:54.031Z,13.18
2016-07-06T00:19:24.043Z,13.15
2016-07-06T00:19:53.440Z,13.16
2016-07-06T00:20:24.065Z,13.16
2016-07-06T00:20:52.865Z,13.23
2016-07-06T00:21:24.103Z,13.12
2016-07-06T00:21:53.504Z,13.18
2016-07-06T00:22:24.116Z,13.19
2016-07-06T00:22:54.135Z,13.16
2016-07-06T00:23:24.157Z,13.22
2016-07-06T00:23:54.176Z,13.13
2016-07-06T00:24:24.187Z,13.15
2016-07-06T00:24:54.186Z,13.15
2016-07-06T00:25:24.198Z,13.18
2016-07-06T00:25:53.598Z,13.19
2016-07-06T00:26:24.232Z,13.13
2016-07-06T00:26:53.630Z,13.13
2016-07-06T00:27:24.260Z,13.09
2016-07-06T00:27:54.272Z,13.09
2016-07-06T00:28:24.290Z,13.09
2016-07-06T00:28:54.313Z,13.15
2016-07-06T00:29:23.696Z,13.19
2016-07-06T00:29:54.342Z,13.09
2016-07-06T00:30:24.358Z,13.05
2016-07-06T00:30:54.374Z,13.09
2016-07-06T00:31:23.771Z,13.13
2016-07-06T00:31:54.399Z,13.11
2016-07-06T00:32:23.194Z,13.05
2016-07-06T00:32:54.424Z,13.13
2016-07-06T00:33:24.422Z,13.13
2016-07-06T00:33:53.843Z,13.18
2016-07-06T00:34:24.456Z,13.19
2016-07-06T00:34:53.852Z,13.12
2016-07-06T00:35:24.501Z,13.16
2016-07-06T00:35:53.903Z,13.11
2016-07-06T00:36:24.521Z,13.12
2016-07-06T00:36:54.533Z,13.12
2016-07-06T00:37:24.542Z,13.13
2016-07-06T00:37:54.575Z,13.2
2016-07-06T00:38:23.968Z,13.16
2016-07-06T00:38:54.606Z,13.13
2016-07-06T00:39:24.611Z,13.15
2016-07-06T00:39:54.605Z,13.15
2016-07-06T00:40:24.026Z,13.16
2016-07-06T00:40:54.632Z,13.16
2016-07-06T00:41:24.052Z,13.16
2016-07-06T00:41:54.680Z,13.09
2016-07-06T00:42:24.084Z,13.18
2016-07-06T00:42:54.714Z,13.11
2016-07-06T00:43:24.723Z,13.15
2016-07-06T00:43:54.744Z,13.13
2016-07-06T00:44:24.752Z,13.16
2016-07-06T00:44:54.768Z,13.08
2016-07-06T00:45:24.782Z,13.11
2016-07-06T00:45:54.789Z,13.11
2016-07-06T00:46:24.178Z,13.09
2016-07-06T00:46:54.839Z,13.03
2016-07-06T00:47:24.839Z,13.05
2016-07-06T00:47:54.850Z,13.04
2016-07-06T00:48:24.863Z,13.11
2016-07-06T00:48:54.895Z,13.12
2016-07-06T00:49:24.897Z,13.05
2016-07-06T00:49:54.909Z,13.04
2016-07-06T00:50:24.920Z,13
2016-07-06T00:50:54.936Z,12.98
2016-07-06T00:51:24.956Z,13
2016-07-06T00:51:54.966Z,13.03
2016-07-06T00:52:24.359Z,13.01
2016-07-06T00:52:54.994Z,13
2016-07-06T00:53:24.995Z,13.05
2016-07-06T00:53:55.022Z,13
2016-07-06T00:54:25.030Z,13.03
2016-07-06T00:54:55.042Z,13.01
2016-07-06T00:55:25.070Z,13.01
2016-07-06T00:55:55.090Z,13
2016-07-06T00:56:25.082Z,13
2016-07-06T00:56:55.101Z,13.01
2016-07-06T00:57:25.113Z,13.01
2016-07-06T00:57:55.128Z,13.05
2016-07-06T00:58:25.150Z,13.04
2016-07-06T00:58:55.168Z,13.01
2016-07-06T00:59:24.564Z,13
2016-07-06T00:59:55.195Z,13.03
2016-07-06T01:00:24.595Z,13.03
2016-07-06T01:00:55.224Z,13
2016-07-06T01:01:25.238Z,12.98
2016-07-06T01:01:55.243Z,13.03
2016-07-06T01:02:24.650Z,12.97
2016-07-06T01:02:55.269Z,12.98
2016-07-06T01:03:25.288Z,13.03
2016-07-06T01:03:54.683Z,13.05
2016-07-06T01:04:24.704Z,13.03
2016-07-06T01:04:55.339Z,13.01
2016-07-06T01:05:25.347Z,13.03
2016-07-06T01:05:55.354Z,13.03
2016-07-06T01:06:24.136Z,13.04
2016-07-06T01:06:54.764Z,13.03
2016-07-06T01:07:24.770Z,13.03
2016-07-06T01:07:55.409Z,12.95
2016-07-06T01:08:25.609Z,12.95
2016-07-06T01:08:55.505Z,12.98
2016-07-06T01:09:25.522Z,13
2016-07-06T01:09:55.653Z,12.97
2016-07-06T01:10:25.660Z,13
2016-07-06T01:10:55.556Z,12.97
2016-07-06T01:11:25.575Z,13
2016-07-06T01:11:54.971Z,13
2016-07-06T01:12:25.536Z,13.03
2016-07-06T01:12:55.563Z,13
2016-07-06T01:13:25.569Z,13
2016-07-06T01:13:54.972Z,13
2016-07-06T01:14:25.600Z,13.01
2016-07-06T01:14:55.615Z,13.03
2016-07-06T01:15:25.618Z,13.01
2016-07-06T01:15:55.629Z,13.04
2016-07-06T01:16:25.649Z,13.09
2016-07-06T01:16:55.658Z,13.01
2016-07-06T01:17:25.681Z,13.03
2016-07-06T01:17:55.076Z,13.05
2016-07-06T01:18:25.692Z,13.05
2016-07-06T01:18:54.478Z,12.98
2016-07-06T01:19:25.724Z,13.04
2016-07-06T01:19:55.128Z,12.95
2016-07-06T01:20:25.141Z,13
2016-07-06T01:20:55.171Z,12.94
2016-07-06T01:21:25.790Z,12.97
2016-07-06T01:21:54.594Z,13
2016-07-06T01:22:25.824Z,13.03
2016-07-06T01:22:55.828Z,13.03
2016-07-06T01:23:25.232Z,13.01
2016-07-06T01:23:54.627Z,12.98
2016-07-06T01:24:25.249Z,12.98
2016-07-06T01:24:55.890Z,12.98
2016-07-06T01:25:25.277Z,13
2016-07-06T01:25:55.289Z,13
2016-07-06T01:26:25.301Z,13.01
2016-07-06T01:26:55.946Z,13.05
2016-07-06T01:27:25.958Z,13.04
2016-07-06T01:27:55.967Z,13.03
2016-07-06T01:28:25.972Z,13.01
2016-07-06T01:28:56.004Z,13.04
2016-07-06T01:29:26.014Z,13.09
2016-07-06T01:29:56.016Z,13.05
2016-07-06T01:30:26.039Z,13.05
2016-07-06T01:30:56.061Z,13.05
2016-07-06T01:31:25.453Z,13.09
2016-07-06T01:31:56.082Z,13.08
2016-07-06T01:32:26.080Z,13.01
2016-07-06T01:32:54.890Z,13.08
2016-07-06T01:33:26.121Z,13.05
2016-07-06T01:33:56.122Z,13.12
2016-07-06T01:34:25.539Z,13.03
2016-07-06T01:34:56.166Z,13.08
2016-07-06T01:35:26.181Z,13.12
2016-07-06T01:35:56.199Z,13.12
2016-07-06T01:36:26.203Z,13.01
2016-07-06T01:36:56.230Z,13.03
2016-07-06T01:37:26.228Z,13.04
2016-07-06T01:37:55.645Z,13.04
2016-07-06T01:38:26.270Z,13.01
2016-07-06T01:38:56.285Z,13.11
2016-07-06T01:39:26.310Z,13
2016-07-06T01:39:56.310Z,13.03
2016-07-06T01:40:25.702Z,13.09
2016-07-06T01:40:56.336Z,13.05
2016-07-06T01:41:26.358Z,13.08
2016-07-06T01:41:56.366Z,13.05
2016-07-06T01:42:25.757Z,13.04
2016-07-06T01:42:55.763Z,13
2016-07-06T01:43:26.413Z,12.98
2016-07-06T01:43:56.413Z,13
2016-07-06T01:44:26.436Z,13
2016-07-06T01:44:56.462Z,12.98
2016-07-06T01:45:26.459Z,12.94
2016-07-06T01:45:56.481Z,13.01
2016-07-06T01:46:26.479Z,13
2016-07-06T01:46:56.510Z,13.03
2016-07-06T01:47:26.512Z,12.98
2016-07-06T01:47:56.518Z,12.98
2016-07-06T01:48:25.933Z,13
2016-07-06T01:48:56.560Z,12.98
2016-07-06T01:49:26.576Z,12.98
2016-07-06T01:49:55.978Z,13.04
2016-07-06T01:50:26.611Z,13.01
2016-07-06T01:50:56.613Z,12.98
2016-07-06T01:51:26.636Z,12.98
2016-07-06T01:51:56.652Z,12.93
2016-07-06T01:52:26.640Z,12.91
2016-07-06T01:52:56.675Z,12.94
2016-07-06T01:53:26.679Z,12.93
2016-07-06T01:53:56.693Z,12.95
2016-07-06T01:54:26.711Z,12.87
2016-07-06T01:54:56.731Z,12.86
2016-07-06T01:55:26.735Z,12.93
2016-07-06T01:55:56.140Z,12.9
2016-07-06T01:56:26.772Z,12.93
2016-07-06T01:56:56.152Z,12.9
2016-07-06T01:57:26.793Z,12.79
2016-07-06T01:57:56.807Z,12.78
2016-07-06T01:58:26.831Z,12.72
2016-07-06T01:58:56.850Z,12.83
2016-07-06T01:59:26.870Z,12.75
2016-07-06T01:59:56.258Z,12.79
2016-07-06T02:00:26.887Z,12.76
2016-07-06T02:00:56.903Z,12.73
2016-07-06T02:01:26.307Z,12.78
2016-07-06T02:01:56.928Z,12.73
2016-07-06T02:02:26.331Z,12.78
2016-07-06T02:02:56.962Z,12.75
2016-07-06T02:03:26.970Z,12.79
2016-07-06T02:03:56.987Z,12.79
2016-07-06T02:04:26.999Z,12.79
2016-07-06T02:04:57.013Z,12.79
2016-07-06T02:05:27.033Z,12.85
2016-07-06T02:05:57.041Z,12.82
2016-07-06T02:06:27.059Z,12.76
2016-07-06T02:06:57.069Z,12.79
2016-07-06T02:07:27.089Z,12.82
2016-07-06T02:07:57.096Z,12.82
2016-07-06T02:08:27.108Z,12.79
2016-07-06T02:08:57.129Z,12.79
2016-07-06T02:09:26.527Z,12.82
2016-07-06T02:09:57.139Z,12.86
2016-07-06T02:10:27.165Z,12.75
2016-07-06T02:10:57.181Z,12.75
2016-07-06T02:11:27.186Z,12.78
2016-07-06T02:11:57.209Z,12.78
2016-07-06T02:12:27.243Z,12.79
2016-07-06T02:12:56.620Z,12.76
2016-07-06T02:13:27.248Z,12.79
2016-07-06T02:13:57.271Z,12.75
2016-07-06T02:14:27.278Z,12.7
2016-07-06T02:14:57.290Z,12.67
2016-07-06T02:15:26.702Z,12.75
2016-07-06T02:15:56.704Z,12.75
2016-07-06T02:16:27.339Z,12.73
2016-07-06T02:16:57.353Z,12.73
2016-07-06T02:17:27.359Z,12.73
2016-07-06T02:17:56.774Z,12.72
2016-07-06T02:18:26.793Z,12.75
2016-07-06T02:18:57.407Z,12.7
2016-07-06T02:19:26.803Z,12.75
2016-07-06T02:19:57.437Z,12.68
2016-07-06T02:20:27.449Z,12.76
2016-07-06T02:20:57.475Z,12.68
2016-07-06T02:21:26.857Z,12.7
2016-07-06T02:21:57.493Z,12.76
2016-07-06T02:22:27.509Z,12.79
2016-07-06T02:22:56.906Z,12.82
2016-07-06T02:23:27.528Z,12.78
2016-07-06T02:23:57.553Z,12.79
2016-07-06T02:24:26.329Z,12.82
2016-07-06T02:24:57.573Z,12.78
2016-07-06T02:25:26.980Z,12.73
2016-07-06T02:25:57.603Z,12.78
2016-07-06T02:26:27.616Z,12.79
2016-07-06T02:26:57.633Z,12.86
2016-07-06T02:27:27.644Z,12.87
2016-07-06T02:27:57.653Z,12.87
2016-07-06T02:28:27.674Z,12.9
2016-07-06T02:28:57.691Z,12.87
2016-07-06T02:29:27.089Z,12.98
2016-07-06T02:29:56.494Z,12.94
2016-07-06T02:30:27.728Z,12.95
2016-07-06T02:30:57.727Z,12.94
2016-07-06T02:31:27.734Z,13.01
2016-07-06T02:31:56.540Z,13
2016-07-06T02:32:27.166Z,13.01
2016-07-06T02:32:57.167Z,13.01
2016-07-06T02:33:27.797Z,13.04
2016-07-06T02:33:57.824Z,13.11
2016-07-06T02:34:27.220Z,13.04
2016-07-06T02:34:57.220Z,13.03
2016-07-06T02:35:27.240Z,13.13
2016-07-06T02:35:57.871Z,13.15
2016-07-06T02:36:27.276Z,13.15
2016-07-06T02:36:57.890Z,13.13
2016-07-06T02:37:27.908Z,13.16
2016-07-06T02:37:57.933Z,13.16
2016-07-06T02:38:27.319Z,13.19
2016-07-06T02:38:57.966Z,13.18
2016-07-06T02:39:27.366Z,13.16
2016-07-06T02:39:57.376Z,13.16
2016-07-06T02:40:28.009Z,13.15
2016-07-06T02:40:57.409Z,13.31
2016-07-06T02:41:28.039Z,13.31
2016-07-06T02:41:58.054Z,13.33
2016-07-06T02:42:28.081Z,13.27
2016-07-06T02:42:58.072Z,13.27
2016-07-06T02:43:28.091Z,13.22
2016-07-06T02:43:58.109Z,13.28
2016-07-06T02:44:28.119Z,13.28
2016-07-06T02:44:58.130Z,13.35
2016-07-06T02:45:28.149Z,13.23
2016-07-06T02:45:57.522Z,13.19
2016-07-06T02:46:28.173Z,13.3
2016-07-06T02:46:58.188Z,13.23
2016-07-06T02:47:28.188Z,13.22
2016-07-06T02:47:58.199Z,13.23
2016-07-06T02:48:28.231Z,13.27
2016-07-06T02:48:58.241Z,13.16
2016-07-06T02:49:28.250Z,13.23
2016-07-06T02:49:58.254Z,13.28
2016-07-06T02:50:28.292Z,13.28
2016-07-06T02:50:58.300Z,13.35
2016-07-06T02:51:28.304Z,13.3
2016-07-06T02:51:58.325Z,13.33
2016-07-06T02:52:28.345Z,13.25
2016-07-06T02:52:58.362Z,13.23
2016-07-06T02:53:28.369Z,13.2
2016-07-06T02:53:58.380Z,13.27
2016-07-06T02:54:28.399Z,13.2
2016-07-06T02:54:57.799Z,13.2
2016-07-06T02:55:28.430Z,13.27
2016-07-06T02:55:57.820Z,13.15
2016-07-06T02:56:28.451Z,13.12
2016-07-06T02:56:58.473Z,13.22
2016-07-06T02:57:28.479Z,13.18
2016-07-06T02:57:58.500Z,13.09
2016-07-06T02:58:27.904Z,13.11
2016-07-06T02:58:58.530Z,13.04
2016-07-06T02:59:28.542Z,13.13
2016-07-06T02:59:58.556Z,13.05
2016-07-06T03:00:28.570Z,13.03
2016-07-06T03:00:57.971Z,13.01
2016-07-06T03:01:28.605Z,13
2016-07-06T03:01:58.616Z,12.95
2016-07-06T03:02:28.007Z,12.94
2016-07-06T03:02:58.643Z,12.86
2016-07-06T03:03:28.651Z,12.97
2016-07-06T03:03:58.663Z,12.87
2016-07-06T03:04:28.682Z,12.95
2016-07-06T03:04:58.694Z,12.93
2016-07-06T03:05:28.098Z,12.86
2016-07-06T03:05:58.113Z,12.8
2016-07-06T03:06:28.121Z,12.9
2016-07-06T03:06:58.748Z,12.8
2016-07-06T03:07:28.147Z,12.82
2016-07-06T03:07:58.784Z,12.79
2016-07-06T03:08:28.170Z,12.73
2016-07-06T03:08:58.795Z,12.78
2016-07-06T03:09:28.803Z,12.78
2016-07-06T03:09:58.826Z,12.76
2016-07-06T03:10:28.847Z,12.75
2016-07-06T03:10:58.850Z,12.75
2016-07-06T03:11:28.876Z,12.72
2016-07-06T03:11:58.892Z,12.78
2016-07-06T03:12:28.886Z,12.68
2016-07-06T03:12:58.923Z,12.78
2016-07-06T03:13:28.319Z,12.76
2016-07-06T03:13:58.309Z,12.8
2016-07-06T03:14:28.952Z,12.76
2016-07-06T03:14:58.347Z,12.82
2016-07-06T03:15:28.976Z,12.75
2016-07-06T03:15:58.989Z,12.78
2016-07-06T03:16:29.014Z,12.76
2016-07-06T03:16:58.399Z,12.76
2016-07-06T03:17:29.020Z,12.76
2016-07-06T03:17:59.040Z,12.82
2016-07-06T03:18:29.048Z,12.76
2016-07-06T03:18:59.073Z,12.76
2016-07-06T03:19:28.473Z,12.76
2016-07-06T03:19:59.092Z,12.79
2016-07-06T03:20:29.112Z,12.78
2016-07-06T03:20:59.127Z,12.78
2016-07-06T03:21:29.144Z,12.8
2016-07-06T03:21:59.192Z,12.72
2016-07-06T03:22:28.557Z,12.72
2016-07-06T03:22:58.573Z,12.78
2016-07-06T03:23:28.593Z,12.76
2016-07-06T03:23:58.605Z,12.72
2016-07-06T03:24:29.238Z,12.75
2016-07-06T03:24:59.244Z,12.73
2016-07-06T03:25:29.269Z,12.75
2016-07-06T03:25:59.281Z,12.78
2016-07-06T03:26:29.295Z,12.68
2016-07-06T03:26:59.318Z,12.7
2016-07-06T03:27:28.711Z,12.75
2016-07-06T03:27:58.732Z,12.73
2016-07-06T03:28:29.356Z,12.73
2016-07-06T03:28:59.374Z,12.72
2016-07-06T03:29:29.390Z,12.76
2016-07-06T03:29:59.397Z,12.68
2016-07-06T03:30:29.435Z,12.73
2016-07-06T03:30:59.420Z,12.58
2016-07-06T03:31:29.440Z,12.61
2016-07-06T03:31:59.454Z,12.58
2016-07-06T03:32:28.851Z,12.64
2016-07-06T03:32:58.868Z,12.57
2016-07-06T03:33:29.501Z,12.6
2016-07-06T03:33:59.514Z,12.58
2016-07-06T03:34:29.520Z,12.65
2016-07-06T03:34:59.534Z,12.65
2016-07-06T03:35:28.938Z,12.64
2016-07-06T03:35:59.567Z,12.64
2016-07-06T03:36:28.963Z,12.73
2016-07-06T03:36:59.580Z,12.67
2016-07-06T03:37:29.599Z,12.61
2016-07-06T03:37:59.010Z,12.55
2016-07-06T03:38:29.014Z,12.58
2016-07-06T03:38:59.651Z,12.65
2016-07-06T03:39:29.053Z,12.61
2016-07-06T03:39:59.675Z,12.61
2016-07-06T03:40:29.690Z,12.72
2016-07-06T03:40:59.712Z,12.6
2016-07-06T03:41:29.717Z,12.61
2016-07-06T03:41:59.728Z,12.64
2016-07-06T03:42:29.759Z,12.61
2016-07-06T03:42:59.757Z,12.61
2016-07-06T03:43:29.163Z,12.62
2016-07-06T03:43:59.782Z,12.67
2016-07-06T03:44:29.799Z,12.57
2016-07-06T03:44:59.184Z,12.6
2016-07-06T03:45:29.837Z,12.54
2016-07-06T03:45:59.227Z,12.54
2016-07-06T03:46:29.865Z,12.46
2016-07-06T03:46:59.260Z,12.65
2016-07-06T03:47:29.268Z,12.61
2016-07-06T03:47:59.886Z,12.61
2016-07-06T03:48:29.898Z,12.58
2016-07-06T03:48:59.928Z,12.49
2016-07-06T03:49:29.312Z,12.64
2016-07-06T03:49:59.943Z,12.55
2016-07-06T03:50:29.950Z,12.5
2016-07-06T03:50:59.969Z,12.47
2016-07-06T03:51:29.979Z,12.64
2016-07-06T03:51:59.392Z,12.6
2016-07-06T03:52:30.022Z,12.62
2016-07-06T03:53:00.027Z,12.67
2016-07-06T03:53:29.453Z,12.65
2016-07-06T03:54:00.068Z,12.73
2016-07-06T03:54:30.083Z,12.72
2016-07-06T03:55:00.097Z,12.76
2016-07-06T03:55:29.495Z,12.95
2016-07-06T03:56:00.124Z,13.04
2016-07-06T03:56:29.524Z,13.05
2016-07-06T03:57:00.156Z,13.16
2016-07-06T03:57:30.162Z,13.16
2016-07-06T03:58:00.169Z,13.16
2016-07-06T03:58:29.576Z,13.09
2016-07-06T03:59:00.191Z,13.04
2016-07-06T03:59:30.212Z,13.05
2016-07-06T04:00:00.227Z,13.05
2016-07-06T04:00:29.631Z,13
2016-07-06T04:00:59.635Z,12.97
2016-07-06T04:01:30.263Z,12.9
2016-07-06T04:02:00.266Z,12.9
2016-07-06T04:02:29.674Z,12.85
2016-07-06T04:03:00.308Z,12.8
2016-07-06T04:03:29.699Z,12.75
2016-07-06T04:03:59.735Z,12.72
2016-07-06T04:04:30.365Z,12.76
2016-07-06T04:05:00.378Z,12.93
2016-07-06T04:05:30.395Z,12.86
2016-07-06T04:06:00.418Z,12.95
2016-07-06T04:06:29.803Z,12.95
2016-07-06T04:07:00.414Z,13
2016-07-06T04:07:30.439Z,12.97
2016-07-06T04:08:00.460Z,12.9
2016-07-06T04:08:29.857Z,12.94
2016-07-06T04:09:00.489Z,13.03
2016-07-06T04:09:30.502Z,13.08
2016-07-06T04:10:00.519Z,13.23
2016-07-06T04:10:30.516Z,13.31
2016-07-06T04:11:00.540Z,13.39
2016-07-06T04:11:30.555Z,13.31
2016-07-06T04:12:00.558Z,13.27
2016-07-06T04:12:30.572Z,13.28
2016-07-06T04:13:00.597Z,13.15
2016-07-06T04:13:30.600Z,13.16
2016-07-06T04:14:00.612Z,13.04
2016-07-06T04:14:30.647Z,13
2016-07-06T04:15:00.045Z,13.03
2016-07-06T04:15:30.045Z,13.04
2016-07-06T04:16:00.675Z,13.09
2016-07-06T04:16:30.685Z,12.98
2016-07-06T04:17:00.699Z,12.97
2016-07-06T04:17:30.104Z,13.01
2016-07-06T04:18:00.718Z,12.95
2016-07-06T04:18:30.728Z,12.95
2016-07-06T04:19:00.756Z,12.95
2016-07-06T04:19:30.783Z,12.93
2016-07-06T04:20:00.175Z,12.98
2016-07-06T04:20:30.792Z,12.93
2016-07-06T04:21:00.818Z,12.95
2016-07-06T04:21:30.828Z,13
2016-07-06T04:22:00.232Z,13
2016-07-06T04:22:30.249Z,12.98
2016-07-06T04:23:00.876Z,13
2016-07-06T04:23:30.888Z,13.01
2016-07-06T04:24:00.289Z,13
2016-07-06T04:24:30.918Z,13.03
2016-07-06T04:25:00.937Z,13.03
2016-07-06T04:25:30.337Z,13.05
2016-07-06T04:26:00.966Z,13.03
2016-07-06T04:26:30.358Z,13.04
2016-07-06T04:27:00.360Z,13.04
2016-07-06T04:27:30.383Z,13.03
2016-07-06T04:28:01.009Z,13.01
2016-07-06T04:28:31.014Z,13.08
2016-07-06T04:29:01.022Z,13.04
2016-07-06T04:29:31.040Z,13.05
2016-07-06T04:30:00.432Z,13.05
2016-07-06T04:30:30.467Z,13.09
2016-07-06T04:31:01.095Z,13.12
2016-07-06T04:31:31.112Z,13.05
2016-07-06T04:32:00.512Z,13.18
2016-07-06T04:32:30.523Z,13.19
2016-07-06T04:33:01.160Z,13.2
2016-07-06T04:33:31.156Z,13.12
2016-07-06T04:34:01.179Z,13.11
2016-07-06T04:34:29.957Z,13.16
2016-07-06T04:35:00.594Z,13.15
2016-07-06T04:35:31.223Z,13.23
2016-07-06T04:36:01.245Z,13.27
2016-07-06T04:36:31.253Z,13.31
2016-07-06T04:37:01.260Z,13.25
2016-07-06T04:37:31.286Z,13.25
2016-07-06T04:38:00.070Z,13.27
2016-07-06T04:38:30.692Z,13.27
2016-07-06T04:39:01.311Z,13.31
2016-07-06T04:39:31.344Z,13.25
2016-07-06T04:40:01.355Z,13.25
2016-07-06T04:40:31.348Z,13.25
2016-07-06T04:41:01.367Z,13.31
2016-07-06T04:41:31.378Z,13.39
2016-07-06T04:42:01.393Z,13.39
2016-07-06T04:42:31.426Z,13.59
2016-07-06T04:43:00.817Z,13.59
2016-07-06T04:43:31.453Z,13.72
2016-07-06T04:44:00.827Z,13.9
2016-07-06T04:44:31.458Z,13.99
2016-07-06T04:45:00.857Z,14.18
2016-07-06T04:45:31.481Z,14.28
2016-07-06T04:46:01.518Z,14.4
2016-07-06T04:46:31.512Z,14.5
2016-07-06T04:47:00.908Z,14.53
2016-07-06T04:47:31.558Z,14.54
2016-07-06T04:48:01.577Z,14.59
2016-07-06T04:48:31.592Z,14.6
2016-07-06T04:49:00.983Z,14.59
2016-07-06T04:49:31.614Z,14.66
2016-07-06T04:50:01.622Z,14.69
2016-07-06T04:50:31.026Z,14.68
2016-07-06T04:51:01.043Z,14.72
2016-07-06T04:51:31.651Z,14.82
2016-07-06T04:52:01.689Z,14.82
2016-07-06T04:52:31.697Z,14.94
2016-07-06T04:53:01.717Z,15
2016-07-06T04:53:30.506Z,15.1
2016-07-06T04:54:01.749Z,15.19
2016-07-06T04:54:31.768Z,15.22
2016-07-06T04:55:01.773Z,15.35
2016-07-06T04:55:31.174Z,15.31
2016-07-06T04:56:01.169Z,15.37
2016-07-06T04:56:31.822Z,15.33
2016-07-06T04:57:01.840Z,15.4
2016-07-06T04:57:31.843Z,15.47
2016-07-06T04:58:01.868Z,15.43
2016-07-06T04:58:31.259Z,15.52
2016-07-06T04:59:01.274Z,15.55
2016-07-06T04:59:31.289Z,15.61
2016-07-06T05:00:01.303Z,15.67
2016-07-06T05:00:31.312Z,15.59
2016-07-06T05:01:01.955Z,15.62
2016-07-06T05:01:31.340Z,15.59
2016-07-06T05:02:01.962Z,15.61
2016-07-06T05:02:31.378Z,15.62
2016-07-06T05:03:01.394Z,15.72
2016-07-06T05:03:31.400Z,15.72
2016-07-06T05:04:02.040Z,15.68
2016-07-06T05:04:31.424Z,15.67
2016-07-06T05:05:01.443Z,15.64
2016-07-06T05:05:32.072Z,15.62
2016-07-06T05:06:02.101Z,15.65
2016-07-06T05:06:32.106Z,15.62
2016-07-06T05:07:01.508Z,15.55
2016-07-06T05:07:32.136Z,15.52
2016-07-06T05:08:02.149Z,15.52
2016-07-06T05:08:32.156Z,15.57
2016-07-06T05:09:02.179Z,15.76
2016-07-06T05:09:32.191Z,15.82
2016-07-06T05:10:01.592Z,15.82
2016-07-06T05:10:32.227Z,15.86
2016-07-06T05:11:01.629Z,16.38
2016-07-06T05:11:31.621Z,16.36
2016-07-06T05:12:01.663Z,16.38
2016-07-06T05:12:31.671Z,16.29
2016-07-06T05:13:01.682Z,16.36
2016-07-06T05:13:31.700Z,16.28
2016-07-06T05:14:01.708Z,16.29
2016-07-06T05:14:32.337Z,16.16
2016-07-06T05:15:02.350Z,16.12
2016-07-06T05:15:32.367Z,16.09
2016-07-06T05:16:02.401Z,16.04
2016-07-06T05:16:32.396Z,16.05
2016-07-06T05:17:02.421Z,16.13
2016-07-06T05:17:31.808Z,16.15
2016-07-06T05:18:02.446Z,16.29
2016-07-06T05:18:32.465Z,16.35
2016-07-06T05:19:01.855Z,16.26
2016-07-06T05:19:32.489Z,16.08
2016-07-06T05:20:02.503Z,16
2016-07-06T05:20:32.525Z,15.97
2016-07-06T05:21:02.538Z,16.04
2016-07-06T05:21:32.546Z,16.02
2016-07-06T05:22:02.565Z,16.02
2016-07-06T05:22:32.571Z,16.08
2016-07-06T05:23:01.986Z,16.1
2016-07-06T05:23:32.608Z,16.12
2016-07-06T05:24:02.627Z,16.24
2016-07-06T05:24:32.638Z,16.23
2016-07-06T05:25:02.658Z,16.5
2016-07-06T05:25:32.669Z,16.33
2016-07-06T05:26:02.678Z,16.31
2016-07-06T05:26:32.698Z,16.35
2016-07-06T05:27:02.709Z,16.47
2016-07-06T05:27:32.727Z,16.42
2016-07-06T05:28:02.743Z,16.47
2016-07-06T05:28:32.150Z,16.47
2016-07-06T05:29:02.772Z,16.42
2016-07-06T05:29:32.172Z,16.36
2016-07-06T05:30:02.801Z,16.32
2016-07-06T05:30:32.203Z,16.36
2016-07-06T05:31:02.213Z,16.35
2016-07-06T05:31:32.846Z,16.35
2016-07-06T05:32:02.248Z,16.24
2016-07-06T05:32:32.875Z,16.35
2016-07-06T05:33:02.278Z,16.26
2016-07-06T05:33:32.900Z,16.32
2016-07-06T05:34:02.301Z,16.23
2016-07-06T05:34:32.320Z,16.17
2016-07-06T05:35:02.949Z,16.26
2016-07-06T05:35:32.950Z,16.28
2016-07-06T05:36:02.362Z,16.36
2016-07-06T05:36:32.370Z,16.39
2016-07-06T05:37:02.394Z,16.47
2016-07-06T05:37:33.019Z,16.43
2016-07-06T05:38:02.418Z,16.38
2016-07-06T05:38:33.051Z,16.46
2016-07-06T05:39:03.069Z,16.53
2016-07-06T05:39:33.071Z,16.54
2016-07-06T05:40:02.487Z,16.43
2016-07-06T05:40:33.115Z,16.5
2016-07-06T05:41:03.120Z,16.49
2016-07-06T05:41:31.919Z,16.43
2016-07-06T05:42:03.155Z,16.5
2016-07-06T05:42:33.171Z,16.47
2016-07-06T05:43:03.180Z,16.49
2016-07-06T05:43:33.205Z,16.33
2016-07-06T05:44:02.604Z,16.31
2016-07-06T05:44:33.235Z,16.32
2016-07-06T05:45:02.623Z,16.28
2016-07-06T05:45:33.256Z,16.21
2016-07-06T05:46:02.657Z,16.15
2016-07-06T05:46:33.290Z,16.1
2016-07-06T05:47:03.305Z,15.95
2016-07-06T05:47:33.323Z,15.97
2016-07-06T05:48:03.327Z,16.02
2016-07-06T05:48:33.349Z,16.09
2016-07-06T05:49:03.359Z,16
2016-07-06T05:49:33.384Z,16.01
2016-07-06T05:50:02.773Z,15.98
2016-07-06T05:50:33.405Z,15.9
2016-07-06T05:51:03.421Z,15.91
2016-07-06T05:51:33.443Z,15.97
2016-07-06T05:52:03.449Z,15.97
2016-07-06T05:52:33.472Z,16.01
2016-07-06T05:53:03.483Z,16
2016-07-06T05:53:33.494Z,15.95
2016-07-06T05:54:02.895Z,15.98
2016-07-06T05:54:32.907Z,16.01
2016-07-06T05:55:03.541Z,16.09
2016-07-06T05:55:33.556Z,16.12
2016-07-06T05:56:03.566Z,16.17
2016-07-06T05:56:32.970Z,16.2
2016-07-06T05:57:03.602Z,16.26
2016-07-06T05:57:32.999Z,16.36
2016-07-06T05:58:03.622Z,16.5
2016-07-06T05:58:33.012Z,16.56
2016-07-06T05:59:03.650Z,16.75
2016-07-06T05:59:33.047Z,16.86
2016-07-06T06:00:03.675Z,16.89
2016-07-06T06:00:33.703Z,16.87
2016-07-06T06:01:03.715Z,16.71
2016-07-06T06:01:33.712Z,16.57
2016-07-06T06:02:03.742Z,16.49
2016-07-06T06:02:33.755Z,16.53
2016-07-06T06:03:03.763Z,16.56
2016-07-06T06:03:33.772Z,16.43
2016-07-06T06:04:03.788Z,16.47
2016-07-06T06:04:33.825Z,16.47
2016-07-06T06:05:03.852Z,16.36
2016-07-06T06:05:33.855Z,16.43
2016-07-06T06:06:03.862Z,16.53
2016-07-06T06:06:33.262Z,16.49
2016-07-06T06:07:03.897Z,16.72
2016-07-06T06:07:33.915Z,16.71
2016-07-06T06:08:03.926Z,16.68
2016-07-06T06:08:33.321Z,16.66
2016-07-06T06:09:03.975Z,16.6
2016-07-06T06:09:33.977Z,16.56
2016-07-06T06:10:03.985Z,16.49
2016-07-06T06:10:34.006Z,16.39
2016-07-06T06:11:04.015Z,16.35
2016-07-06T06:11:34.038Z,16.47
2016-07-06T06:12:04.044Z,16.43
2016-07-06T06:12:34.058Z,16.43
2016-07-06T06:13:04.072Z,16.5
2016-07-06T06:13:33.472Z,16.49
2016-07-06T06:14:04.108Z,16.46
2016-07-06T06:14:34.098Z,16.6
2016-07-06T06:15:03.514Z,16.68
2016-07-06T06:15:33.518Z,16.86
2016-07-06T06:16:04.151Z,16.93
2016-07-06T06:16:34.176Z,16.97
2016-07-06T06:17:03.573Z,16.99
2016-07-06T06:17:34.198Z,16.91
2016-07-06T06:18:04.218Z,16.79
2016-07-06T06:18:33.611Z,16.87
2016-07-06T06:19:04.251Z,16.84
2016-07-06T06:19:33.643Z,16.86
2016-07-06T06:20:03.665Z,16.79
2016-07-06T06:20:34.303Z,17.02
2016-07-06T06:21:04.305Z,17.24
2016-07-06T06:21:34.317Z,17.39
2016-07-06T06:22:03.723Z,17.51
2016-07-06T06:22:34.352Z,17.49
2016-07-06T06:23:04.370Z,17.56
2016-07-06T06:23:34.391Z,17.49
2016-07-06T06:24:04.382Z,17.49
2016-07-06T06:24:34.409Z,17.48
2016-07-06T06:25:03.814Z,17.49
2016-07-06T06:25:34.447Z,17.51
2016-07-06T06:26:04.457Z,17.33
2016-07-06T06:26:34.468Z,17.39
2016-07-06T06:27:04.486Z,17.3
2016-07-06T06:27:34.505Z,17.46
2016-07-06T06:28:04.517Z,17.71
2016-07-06T06:28:34.543Z,17.68
2016-07-06T06:29:04.548Z,18